Time;durP1;ratioP1;P1;durP2;ratioP2;P2;SDS_P1;SDS_P2;PMS_P1;PMS_P2;Temp;Humidity;BMP_temperature;BMP_pressure;BME280_temperature;BME280_humidity;BME280_pressure;Samples;Min_cycle;Max_cycle;Signal;HPM_P1;HPM_P2
2022/02/02 00:00:50;;;;;;;2.60;2.40;;;16.60;62.20;;;;;;4955671;28;20050;-21
2022/02/02 00:03:19;;;;;;;2.58;2.38;;;16.60;62.10;;;;;;4937235;28;20099;-21
2022/02/02 00:08:28;;;;;;;2.15;2.05;;;16.50;62.50;;;;;;4937038;28;20050;-24
2022/02/02 00:13:37;;;;;;;2.20;2.10;;;16.50;62.50;;;;;;4940930;28;20074;-23
2022/02/02 00:24:06;;;;;;;2.08;1.98;;;16.50;62.50;;;;;;4952964;28;20139;-24
2022/02/02 00:26:38;;;;;;;2.28;2.10;;;16.40;62.50;;;;;;4959255;28;20082;-23
2022/02/02 00:29:12;;;;;;;5.68;2.10;;;16.40;62.80;;;;;;4958330;28;20054;-23
2022/02/02 00:31:43;;;;;;;2.50;2.30;;;16.40;62.60;;;;;;4944403;28;20054;-22
2022/02/02 00:34:14;;;;;;;2.47;2.35;;;16.40;62.60;;;;;;4954746;28;20110;-23
2022/02/02 00:36:48;;;;;;;2.33;2.20;;;16.40;62.70;;;;;;4953984;28;20054;-23
2022/02/02 00:39:14;;;;;;;2.22;1.90;;;16.40;62.60;;;;;;4954416;28;20055;-23
2022/02/02 00:41:39;;;;;;;2.17;2.08;;;16.40;62.50;;;;;;4949398;28;20062;-23
2022/02/02 00:44:05;;;;;;;1.80;1.70;;;16.40;62.60;;;;;;4955646;28;20460;-23
2022/02/02 00:46:31;;;;;;;2.00;1.90;;;16.40;62.60;;;;;;4952030;28;20090;-23
2022/02/02 00:49:00;;;;;;;2.03;1.92;;;16.40;62.50;;;;;;4946588;28;20039;-23
2022/02/02 00:51:34;;;;;;;2.15;2.00;;;16.40;62.80;;;;;;4949319;28;20050;-22
2022/02/02 00:54:00;;;;;;;1.88;1.58;;;16.30;62.70;;;;;;4953967;28;20047;-22
2022/02/02 00:56:25;;;;;;;1.90;1.80;;;16.40;62.60;;;;;;4950484;28;20051;-21
2022/02/02 00:58:51;;;;;;;1.70;1.60;;;16.40;62.70;;;;;;4946917;28;20067;-21
2022/02/02 01:01:17;;;;;;;1.70;1.60;;;16.40;62.70;;;;;;4950800;28;20047;-22
2022/02/02 01:03:42;;;;;;;1.50;1.40;;;16.40;62.60;;;;;;4948841;28;20047;-22
2022/02/02 01:06:10;;;;;;;1.65;1.55;;;16.40;62.60;;;;;;4948642;28;20070;-21
2022/02/02 01:11:28;;;;;;;1.58;1.48;;;16.40;62.80;;;;;;4947476;28;20031;-20
2022/02/02 01:19:03;;;;;;;1.70;1.60;;;16.30;62.80;;;;;;4950339;28;20050;-22
2022/02/02 01:21:54;;;;;;;2.85;1.40;;;16.40;62.60;;;;;;4954630;28;20449;-21
2022/02/02 01:30:08;;;;;;;1.40;1.30;;;16.40;62.50;;;;;;4949436;28;20077;-21
2022/02/02 01:32:33;;;;;;;1.70;1.60;;;16.40;62.60;;;;;;4952777;29;20039;-22
2022/02/02 01:34:59;;;;;;;1.40;1.30;;;16.40;62.60;;;;;;4968286;28;20095;-21
2022/02/02 01:37:26;;;;;;;1.10;1.10;;;16.40;63.40;;;;;;4948499;28;20039;-21
2022/02/02 01:39:59;;;;;;;1.40;1.30;;;16.40;62.50;;;;;;4950207;28;20043;-21
2022/02/02 01:42:30;;;;;;;1.30;1.20;;;16.50;62.40;;;;;;4947796;28;20040;-21
2022/02/02 01:45:08;;;;;;;1.23;1.13;;;16.40;62.40;;;;;;4947957;28;20047;-22
2022/02/02 01:47:43;;;;;;;1.50;1.40;;;16.30;62.70;;;;;;4951327;28;20069;-21
2022/02/02 01:55:17;;;;;;;1.08;1.00;;;16.40;62.60;;;;;;4957407;28;20050;-22
2022/02/02 02:00:11;;;;;;;1.20;1.10;;;16.30;62.70;;;;;;4968085;28;20415;-22
2022/02/02 02:02:37;;;;;;;1.30;1.00;;;16.30;62.90;;;;;;4969176;28;20039;-24
2022/02/02 02:05:03;;;;;;;1.10;1.10;;;16.40;62.60;;;;;;4938069;28;20069;-23
2022/02/02 02:07:29;;;;;;;1.00;1.00;;;16.40;62.50;;;;;;4938767;28;20039;-23
2022/02/02 02:09:57;;;;;;;1.50;1.20;;;16.40;62.50;;;;;;4938289;28;20062;-23
2022/02/02 02:12:24;;;;;;;1.48;1.30;;;16.40;62.60;;;;;;4938798;28;20047;-23
2022/02/02 02:14:54;;;;;;;1.05;1.00;;;16.40;62.70;;;;;;4938209;28;20052;-23
2022/02/02 02:17:23;;;;;;;1.42;1.08;;;16.40;62.70;;;;;;4937924;28;20055;-22
2022/02/02 02:19:49;;;;;;;0.90;0.90;;;16.30;62.70;;;;;;4957727;28;20103;-23
2022/02/02 02:22:28;;;;;;;1.10;1.02;;;16.30;63.00;;;;;;4956367;28;20043;-23
2022/02/02 02:24:54;;;;;;;0.85;0.85;;;16.30;62.90;;;;;;4957281;28;20049;-24
2022/02/02 02:27:22;;;;;;;1.10;1.10;;;16.30;63.10;;;;;;4955189;28;20068;-23
2022/02/02 02:56:40;;;;;;;1.20;1.00;;;16.30;62.80;;;;;;4954161;28;20066;-21
2022/02/02 02:59:10;;;;;;;0.90;0.90;;;16.40;62.80;;;;;;4958243;28;20075;-21
2022/02/02 03:02:16;;;;;;;0.82;0.82;;;16.30;62.90;;;;;;4940790;28;20082;-21
2022/02/02 03:35:12;;;;;;;0.90;0.75;;;16.30;62.70;;;;;;4937512;28;20057;-24
2022/02/02 03:59:27;;;;;;;0.50;0.50;;;16.30;63.10;;;;;;4942622;28;20051;-25
2022/02/02 04:07:19;;;;;;;0.73;0.55;;;16.30;63.00;;;;;;4940683;28;20047;-21
2022/02/02 04:09:46;;;;;;;0.47;0.45;;;16.30;63.00;;;;;;4940914;28;20489;-23
2022/02/02 04:39:14;;;;;;;0.45;0.43;;;16.30;63.20;;;;;;4959738;28;20077;-23
2022/02/02 05:08:05;;;;;;;0.40;0.40;;;16.30;63.00;;;;;;4954605;28;20058;-22
2022/02/02 05:41:54;;;;;;;0.30;0.30;;;16.30;63.30;;;;;;4966982;28;20142;-22
2022/02/02 05:48:40;;;;;;;0.43;0.43;;;16.30;63.30;;;;;;4955091;28;20350;-21
2022/02/02 05:53:37;;;;;;;0.20;0.20;;;16.30;63.30;;;;;;4949728;28;20177;-21
2022/02/02 05:56:04;;;;;;;0.35;0.32;;;16.30;63.20;;;;;;4947131;28;20039;-22
2022/02/02 05:58:30;;;;;;;0.20;0.20;;;16.30;63.20;;;;;;4947814;28;20091;-21
2022/02/02 06:00:57;;;;;;;0.30;0.30;;;16.30;63.30;;;;;;4953010;28;20044;-21
2022/02/02 06:03:48;;;;;;;0.30;0.30;;;16.30;63.40;;;;;;4946222;28;20055;-21
2022/02/02 06:06:14;;;;;;;0.40;0.40;;;16.20;63.30;;;;;;4949422;28;20034;-22
2022/02/02 06:08:44;;;;;;;0.25;0.20;;;16.20;63.40;;;;;;4946274;28;20083;-21
2022/02/02 06:11:14;;;;;;;0.20;0.20;;;16.20;63.70;;;;;;4945883;28;20047;-22
2022/02/02 06:13:44;;;;;;;0.20;0.20;;;16.10;63.70;;;;;;4946927;28;20842;-21
2022/02/02 06:16:09;;;;;;;0.45;0.20;;;16.10;63.70;;;;;;4948155;28;20031;-22
2022/02/02 06:18:36;;;;;;;0.35;0.35;;;16.20;63.50;;;;;;4946691;28;20067;-22
2022/02/02 06:21:04;;;;;;;0.25;0.20;;;16.20;63.40;;;;;;4946659;28;20153;-21
2022/02/02 06:23:30;;;;;;;0.35;0.30;;;16.20;63.30;;;;;;4948621;28;20059;-21
2022/02/02 06:25:58;;;;;;;0.30;0.30;;;16.20;63.30;;;;;;4952846;28;20078;-22
2022/02/02 06:28:24;;;;;;;0.32;0.32;;;16.30;63.30;;;;;;4950538;28;20043;-23
2022/02/02 06:30:57;;;;;;;0.20;0.20;;;16.30;63.20;;;;;;4952478;28;20054;-23
2022/02/02 06:33:22;;;;;;;0.10;0.10;;;16.20;63.20;;;;;;4949627;28;20134;-23
2022/02/02 06:35:48;;;;;;;0.20;0.20;;;16.20;63.20;;;;;;4947695;28;20991;-22
2022/02/02 06:38:13;;;;;;;0.20;0.10;;;16.20;63.30;;;;;;4958245;28;20048;-22
2022/02/02 06:40:40;;;;;;;0.45;0.30;;;16.20;63.40;;;;;;4944046;28;20048;-24
2022/02/02 06:43:06;;;;;;;0.28;0.28;;;16.20;63.40;;;;;;4947841;28;20047;-22
2022/02/02 06:45:31;;;;;;;0.80;0.20;;;16.20;63.30;;;;;;4945793;28;20050;-23
2022/02/02 06:47:57;;;;;;;0.20;0.20;;;16.20;63.60;;;;;;4954121;28;20043;-22
2022/02/02 06:50:30;;;;;;;0.35;0.30;;;16.20;63.40;;;;;;4955084;28;20078;-25
2022/02/02 06:56:49;;;;;;;0.20;0.20;;;16.30;63.00;;;;;;4949094;28;20042;-23
2022/02/02 07:08:27;;;;;;;0.30;0.30;;;16.20;63.40;;;;;;4954070;28;20046;-22
2022/02/02 07:11:08;;;;;;;0.10;0.10;;;16.20;63.30;;;;;;4949124;28;20787;-22
2022/02/02 07:18:56;;;;;;;0.28;0.28;;;16.20;63.30;;;;;;4946249;28;20149;-21
2022/02/02 07:33:58;;;;;;;0.30;0.30;;;16.20;63.40;;;;;;4950419;28;20054;-22
2022/02/02 07:36:31;;;;;;;0.20;0.20;;;16.30;63.30;;;;;;4937403;28;20086;-22
2022/02/02 07:39:07;;;;;;;1.98;0.20;;;16.30;63.60;;;;;;4952038;28;20071;-24
2022/02/02 07:41:36;;;;;;;0.10;0.10;;;16.20;64.30;;;;;;4955143;28;20078;-25
2022/02/02 07:44:16;;;;;;;0.10;0.10;;;16.20;63.90;;;;;;4956628;28;20053;-24
2022/02/02 07:46:44;;;;;;;2.13;0.20;;;16.10;63.80;;;;;;4951314;28;20063;-24
2022/02/02 07:49:10;;;;;;;0.20;0.20;;;16.10;64.30;;;;;;4937229;28;20052;-23
2022/02/02 07:51:37;;;;;;;0.30;0.28;;;16.10;64.50;;;;;;4954081;28;20128;-24
2022/02/02 07:54:05;;;;;;;0.20;0.20;;;16.10;64.40;;;;;;4940869;28;20047;-24
2022/02/02 07:56:39;;;;;;;0.20;0.20;;;16.10;64.60;;;;;;4945983;28;20039;-23
2022/02/02 07:59:15;;;;;;;0.20;0.20;;;16.10;64.80;;;;;;4958243;28;20047;-24
2022/02/02 08:01:43;;;;;;;0.25;0.15;;;16.00;64.80;;;;;;4963528;28;20504;-24
2022/02/02 08:04:09;;;;;;;0.30;0.17;;;16.00;64.70;;;;;;4956001;28;20051;-24
2022/02/02 08:06:37;;;;;;;0.30;0.30;;;16.10;64.60;;;;;;4955699;28;20061;-23
2022/02/02 08:09:03;;;;;;;0.40;0.30;;;16.00;64.90;;;;;;4954745;28;20529;-24
2022/02/02 08:11:32;;;;;;;0.20;0.20;;;16.10;64.60;;;;;;4938650;28;20047;-24
2022/02/02 08:14:00;;;;;;;0.22;0.22;;;16.00;64.70;;;;;;4950040;28;20044;-24
2022/02/02 08:16:26;;;;;;;2.25;0.20;;;16.10;65.40;;;;;;4937134;28;20043;-24
2022/02/02 08:18:53;;;;;;;0.32;0.32;;;16.00;64.80;;;;;;4956438;28;20054;-23
2022/02/02 08:21:19;;;;;;;0.40;0.20;;;16.00;64.60;;;;;;4955538;28;20531;-23
2022/02/02 08:23:45;;;;;;;0.15;0.15;;;16.10;64.60;;;;;;4948578;28;20491;-23
2022/02/02 08:26:16;;;;;;;0.20;0.17;;;16.10;64.60;;;;;;4956465;28;20405;-23
2022/02/02 08:28:45;;;;;;;0.30;0.30;;;16.10;64.50;;;;;;4938904;28;20420;-23
2022/02/02 08:31:12;;;;;;;0.40;0.20;;;16.10;64.40;;;;;;4953587;28;20055;-23
2022/02/02 08:33:40;;;;;;;0.30;0.30;;;16.10;64.60;;;;;;4959075;28;20043;-24
2022/02/02 08:36:10;;;;;;;0.40;0.30;;;16.10;64.60;;;;;;4954956;28;20058;-22
2022/02/02 08:41:34;;;;;;;0.10;0.10;;;16.10;64.50;;;;;;4939828;28;20058;-23
2022/02/02 08:44:02;;;;;;;0.20;0.20;;;16.10;64.40;;;;;;4940559;28;20168;-23
2022/02/02 08:46:33;;;;;;;1.55;0.20;;;16.10;64.40;;;;;;4946911;28;20058;-23
2022/02/02 08:49:00;;;;;;;0.40;0.20;;;16.10;64.50;;;;;;4968885;28;20042;-23
2022/02/02 08:51:31;;;;;;;0.22;0.17;;;16.10;64.30;;;;;;4973801;28;20050;-23
2022/02/02 09:00:00;;;;;;;2.33;1.30;;;16.20;64.00;;;;;;4961643;28;20045;-23
2022/02/02 09:02:01;;;;;;;3.10;2.63;;;16.10;64.20;;;;;;4951367;28;20501;-24
2022/02/02 09:07:11;;;;;;;4.00;3.22;;;16.30;64.00;;;;;;4953500;28;20067;-24
2022/02/02 09:09:55;;;;;;;3.28;2.95;;;16.30;64.00;;;;;;4952492;28;31415;-24
2022/02/02 09:23:56;;;;;;;4.97;3.85;;;16.30;64.20;;;;;;4952165;28;20094;-22
2022/02/02 09:34:43;;;;;;;3.80;3.15;;;16.30;64.10;;;;;;4958073;28;20136;-24
2022/02/02 09:37:09;;;;;;;4.72;3.30;;;16.20;64.40;;;;;;4950750;28;20568;-23
2022/02/02 09:39:42;;;;;;;4.18;2.90;;;16.20;64.40;;;;;;4955723;28;20524;-23
2022/02/02 09:42:14;;;;;;;4.40;3.58;;;16.20;64.40;;;;;;4957228;28;20068;-23
2022/02/02 09:44:42;;;;;;;4.50;3.50;;;16.20;64.50;;;;;;4957421;28;20063;-23
2022/02/02 09:52:20;;;;;;;3.55;3.10;;;16.20;64.20;;;;;;4949035;28;20040;-23
2022/02/02 10:02:32;;;;;;;2.72;2.53;;;16.30;64.20;;;;;;4957491;28;20046;-23
2022/02/02 10:05:26;;;;;;;4.28;2.75;;;16.20;64.10;;;;;;4947226;28;20075;-24
2022/02/02 10:15:22;;;;;;;2.50;2.30;;;16.20;64.20;;;;;;4957398;28;20137;-23
2022/02/02 10:17:56;;;;;;;2.30;2.10;;;16.20;64.20;;;;;;4957970;28;20039;-23
2022/02/02 10:20:23;;;;;;;2.47;1.90;;;16.20;64.10;;;;;;4946386;28;20443;-24
2022/02/02 10:22:50;;;;;;;2.40;2.20;;;16.20;64.10;;;;;;4938495;28;20040;-23
2022/02/02 10:25:35;;;;;;;2.40;2.20;;;16.20;64.10;;;;;;4954550;28;20043;-20
2022/02/02 10:28:17;;;;;;;2.08;1.88;;;16.20;64.10;;;;;;4958029;28;20039;-21
2022/02/02 10:30:49;;;;;;;2.30;2.15;;;16.20;64.00;;;;;;4938340;28;20513;-21
2022/02/02 10:33:34;;;;;;;2.15;1.92;;;16.20;65.00;;;;;;4937639;28;20040;-21
2022/02/02 10:36:12;;;;;;;2.30;2.10;;;16.20;64.30;;;;;;4952213;28;20063;-21
2022/02/02 10:38:50;;;;;;;2.22;2.00;;;16.20;64.10;;;;;;4954311;28;20558;-21
2022/02/02 10:41:32;;;;;;;1.98;1.85;;;16.30;64.00;;;;;;4946840;28;20055;-21
2022/02/02 10:44:03;;;;;;;2.03;1.83;;;16.20;64.00;;;;;;4938302;28;20090;-21
2022/02/02 10:49:23;;;;;;;2.13;1.80;;;16.20;64.10;;;;;;4945950;28;20139;-21
2022/02/02 10:51:55;;;;;;;2.40;2.20;;;16.20;64.10;;;;;;4957539;28;20051;-21
2022/02/02 10:54:30;;;;;;;2.95;2.20;;;16.30;64.10;;;;;;4956259;28;20043;-22
2022/02/02 10:57:33;;;;;;;2.15;1.88;;;16.20;64.10;;;;;;4945024;28;20059;-21
2022/02/02 11:00:25;;;;;;;2.05;1.70;;;16.20;64.10;;;;;;4955175;28;20093;-24
2022/02/02 11:08:19;;;;;;;1.90;1.65;;;16.20;64.10;;;;;;4968924;28;20046;-23
2022/02/02 11:10:44;;;;;;;2.05;1.85;;;16.20;64.10;;;;;;4956810;28;20031;-23
2022/02/02 11:13:12;;;;;;;1.98;1.88;;;16.30;63.80;;;;;;4943847;28;20078;-24
2022/02/02 11:15:46;;;;;;;1.92;1.40;;;16.30;63.60;;;;;;4920870;29;20043;-23
2022/02/02 11:18:26;;;;;;;1.90;1.80;;;16.40;63.90;;;;;;4623512;28;10001183;-23
2022/02/02 11:20:52;;;;;;;2.28;1.50;;;16.30;63.80;;;;;;4938903;28;20253;-21
2022/02/02 11:23:19;;;;;;;2.47;1.85;;;16.30;63.80;;;;;;4948895;28;20142;-21
2022/02/02 11:25:58;;;;;;;1.85;1.52;;;16.30;63.70;;;;;;4953314;28;20095;-21
2022/02/02 11:28:34;;;;;;;1.90;1.75;;;16.30;63.90;;;;;;4951487;28;20055;-21
2022/02/02 11:31:07;;;;;;;9.90;2.05;;;16.30;63.60;;;;;;4952830;28;20598;-21
2022/02/02 11:34:02;;;;;;;19.60;11.23;;;16.30;63.80;;;;;;4941361;28;20073;-21
2022/02/02 11:36:31;;;;;;;28.67;14.90;;;16.30;63.70;;;;;;4950580;28;20154;-21
2022/02/02 11:38:59;;;;;;;28.27;14.52;;;16.30;63.80;;;;;;4953720;28;20047;-22
2022/02/02 11:47:37;;;;;;;18.55;10.95;;;16.40;63.40;;;;;;4951196;28;20535;-21
2022/02/02 11:50:06;;;;;;;26.15;13.93;;;16.40;63.50;;;;;;4951676;28;20055;-23
2022/02/02 11:52:44;;;;;;;27.88;14.07;;;16.50;63.50;;;;;;4946745;28;20040;-22
2022/02/02 11:55:12;;;;;;;23.92;13.35;;;16.40;63.40;;;;;;4952340;28;20051;-21
2022/02/02 11:57:58;;;;;;;22.70;12.65;;;16.40;63.90;;;;;;4948880;28;20046;-20
2022/02/02 12:11:15;;;;;;;22.45;12.80;;;16.40;63.50;;;;;;4955020;28;20086;-24
2022/02/02 12:47:12;;;;;;;18.73;11.15;;;16.50;63.90;;;;;;4955481;28;20078;-22
2022/02/02 12:57:41;;;;;;;15.48;9.43;;;16.50;63.50;;;;;;4958551;28;20061;-22
2022/02/02 13:00:13;;;;;;;20.90;10.32;;;16.60;63.50;;;;;;4958179;28;20131;-22
2022/02/02 13:02:41;;;;;;;15.35;9.68;;;16.50;63.70;;;;;;4939203;28;20055;-23
2022/02/02 13:05:08;;;;;;;17.80;9.63;;;16.60;63.50;;;;;;4958428;28;20035;-22
2022/02/02 13:07:34;;;;;;;16.92;9.73;;;16.60;63.40;;;;;;4957509;28;20074;-19
2022/02/02 13:10:01;;;;;;;16.35;9.30;;;16.60;63.40;;;;;;4953647;28;20505;-19
2022/02/02 13:12:36;;;;;;;13.35;8.48;;;16.70;68.60;;;;;;4957906;28;20094;-18
2022/02/02 13:23:18;;;;;;;14.13;8.38;;;16.70;63.30;;;;;;4955057;28;20045;-20
2022/02/02 13:25:54;;;;;;;15.00;8.20;;;16.60;63.40;;;;;;4952949;28;20407;-20
2022/02/02 13:28:46;;;;;;;12.07;8.52;;;16.60;63.30;;;;;;4957379;28;20051;-21
2022/02/02 13:31:37;;;;;;;14.43;8.32;;;16.60;63.30;;;;;;4955765;28;20076;-20
2022/02/02 13:34:08;;;;;;;10.70;7.75;;;16.60;63.30;;;;;;4939124;28;20040;-20
2022/02/02 13:36:52;;;;;;;14.73;7.93;;;16.70;63.20;;;;;;4938505;28;20055;-20
2022/02/02 13:42:38;;;;;;;12.40;7.75;;;16.70;63.20;;;;;;4950554;28;20050;-20
2022/02/02 13:45:25;;;;;;;11.05;7.25;;;16.70;63.20;;;;;;4969158;28;20047;-20
2022/02/02 13:51:13;;;;;;;14.52;7.35;;;16.70;62.90;;;;;;4957973;28;20179;-20
2022/02/02 14:04:28;;;;;;;10.07;6.20;;;16.60;63.40;;;;;;4947591;28;20070;-20
2022/02/02 14:07:20;;;;;;;11.20;6.60;;;16.50;63.40;;;;;;4939840;28;20044;-20
2022/02/02 14:33:29;;;;;;;6.72;5.18;;;16.70;63.00;;;;;;4940070;28;19919;-20
2022/02/02 14:35:59;;;;;;;9.23;6.03;;;16.60;63.20;;;;;;4945513;28;20066;-20
2022/02/02 14:38:25;;;;;;;8.57;5.60;;;16.60;63.40;;;;;;4956369;28;20047;-20
2022/02/02 14:43:26;;;;;;;7.82;5.18;;;16.60;63.60;;;;;;4948575;28;20206;-20
2022/02/02 14:45:56;;;;;;;7.05;5.25;;;16.50;63.70;;;;;;4956447;28;20047;-20
2022/02/02 14:48:28;;;;;;;8.30;5.38;;;16.50;63.70;;;;;;4942912;28;20095;-20
2022/02/02 14:51:02;;;;;;;6.55;5.50;;;16.50;63.80;;;;;;4956754;28;20098;-20
2022/02/02 15:16:43;;;;;;;5.97;4.90;;;16.50;64.50;;;;;;4956017;28;20054;-20
2022/02/02 15:29:13;;;;;;;5.30;3.80;;;16.60;63.40;;;;;;4949680;28;20111;-20
2022/02/02 15:31:40;;;;;;;4.80;4.00;;;16.70;63.10;;;;;;4941827;28;20058;-20
2022/02/02 15:34:11;;;;;;;6.10;4.38;;;16.60;63.30;;;;;;4956696;28;20053;-20
2022/02/02 15:37:19;;;;;;;5.57;4.43;;;16.50;63.60;;;;;;4955222;28;20091;-20
2022/02/02 15:39:24;;;;;;;5.20;4.60;;;16.60;63.50;;;;;;4956766;28;20138;-20
2022/02/02 16:05:03;;;;;;;4.25;3.22;;;16.50;63.30;;;;;;4941399;28;20044;-20
2022/02/02 16:07:30;;;;;;;3.42;3.13;;;16.50;63.50;;;;;;4939420;28;20052;-21
2022/02/02 16:10:01;;;;;;;3.67;3.28;;;16.50;63.50;;;;;;4953413;28;20039;-19
2022/02/02 16:12:45;;;;;;;4.88;3.40;;;16.60;63.60;;;;;;4951848;28;20539;-20
2022/02/02 16:36:37;;;;;;;2.90;2.63;;;16.60;63.20;;;;;;4949153;28;19974;-20
2022/02/02 16:39:17;;;;;;;3.30;2.95;;;16.60;63.50;;;;;;4939089;28;20099;-20
2022/02/02 16:44:27;;;;;;;4.85;3.10;;;16.50;63.30;;;;;;4954472;28;20551;-20
2022/02/02 16:46:52;;;;;;;4.32;3.22;;;16.50;63.50;;;;;;4966388;28;20059;-20
2022/02/02 16:49:19;;;;;;;3.55;3.15;;;16.50;63.30;;;;;;4958973;28;20051;-20
2022/02/02 16:51:45;;;;;;;3.70;3.08;;;16.50;63.50;;;;;;4957450;28;20051;-18
2022/02/02 16:54:19;;;;;;;3.92;2.72;;;16.60;63.30;;;;;;4952685;28;20054;-20
2022/02/02 16:57:13;;;;;;;3.55;2.63;;;16.60;63.20;;;;;;4958680;28;20051;-20
2022/02/02 17:39:57;;;;;;;2.20;2.00;;;16.70;62.80;;;;;;4955215;28;20594;-20
2022/02/02 17:42:53;;;;;;;2.47;2.07;;;16.60;63.20;;;;;;4957253;28;21041;-20
2022/02/02 18:12:26;;;;;;;1.77;1.65;;;16.70;62.60;;;;;;4955809;28;20161;-20
2022/02/02 18:22:57;;;;;;;1.70;1.60;;;16.70;62.50;;;;;;4956397;28;20078;-20
2022/02/02 18:25:35;;;;;;;;;;;16.70;62.20;;;;;;4956896;28;20083;-20
2022/02/02 18:57:41;;;;;;;1.70;1.60;;;16.70;62.00;;;;;;4955031;28;20062;-20
2022/02/02 19:37:18;;;;;;;3.35;1.50;;;16.70;62.00;;;;;;4951541;28;20103;-20
2022/02/02 19:37:41;;;;;;;1.67;1.58;;;16.70;61.80;;;;;;4938227;28;20447;-20
2022/02/02 19:40:14;;;;;;;1.73;1.58;;;16.70;61.80;;;;;;4951958;28;20424;-20
2022/02/02 19:56:25;;;;;;;1.50;1.40;;;16.70;61.80;;;;;;4953441;28;20411;-18
2022/02/02 20:01:56;;;;;;;;;;;16.70;61.80;;;;;;4944380;28;20105;-20
2022/02/02 20:12:24;;;;;;;1.50;1.40;;;16.60;62.00;;;;;;4950791;28;20118;-20
2022/02/02 20:14:49;;;;;;;2.80;1.33;;;16.60;62.10;;;;;;4945410;28;20513;-20
2022/02/02 20:17:17;;;;;;;2.05;1.33;;;16.60;62.00;;;;;;4950668;28;21541;-20
2022/02/02 20:19:48;;;;;;;1.30;1.20;;;16.60;61.90;;;;;;4942085;28;20047;-18
2022/02/02 20:22:17;;;;;;;1.60;1.50;;;16.60;61.90;;;;;;4950032;28;20476;-18
2022/02/02 20:24:51;;;;;;;1.10;1.08;;;16.70;61.90;;;;;;4604949;28;10000557;-18
2022/02/02 20:27:16;;;;;;;1.48;1.10;;;16.60;62.00;;;;;;4951754;28;20051;-18
2022/02/02 20:29:42;;;;;;;2.85;1.40;;;16.60;62.20;;;;;;4953228;28;20113;-18
2022/02/02 20:32:08;;;;;;;2.35;1.58;;;16.60;61.90;;;;;;4953748;28;20052;-18
2022/02/02 20:34:33;;;;;;;2.33;1.00;;;16.60;62.10;;;;;;4954028;28;21934;-18
2022/02/02 20:36:59;;;;;;;1.30;1.20;;;16.60;62.10;;;;;;4952292;28;20043;-18
2022/02/02 20:41:55;;;;;;;1.40;1.30;;;16.50;62.10;;;;;;4946263;28;20559;-18
2022/02/02 20:44:34;;;;;;;1.63;1.52;;;16.60;62.30;;;;;;4958939;28;20054;-18
2022/02/02 21:10:30;;;;;;;1.15;1.10;;;16.40;62.60;;;;;;4957897;28;20080;-18
2022/02/02 21:15:41;;;;;;;1.00;1.00;;;16.40;62.70;;;;;;4959900;28;20102;-18
2022/02/02 21:18:16;;;;;;;1.88;0.70;;;16.40;62.80;;;;;;4955498;28;20574;-18
2022/02/02 21:20:50;;;;;;;1.23;1.13;;;16.40;62.50;;;;;;4946450;28;20039;-19
2022/02/02 21:28:25;;;;;;;1.20;1.20;;;16.30;62.90;;;;;;4950368;28;20049;-20
2022/02/02 21:30:51;;;;;;;1.42;1.33;;;16.30;62.70;;;;;;4956790;28;20083;-20
2022/02/02 21:33:18;;;;;;;1.58;1.48;;;16.40;63.10;;;;;;4953786;28;20146;-20
2022/02/02 21:35:45;;;;;;;0.95;0.95;;;16.40;62.60;;;;;;4943533;28;20051;-20
2022/02/02 21:38:29;;;;;;;1.40;1.30;;;16.40;62.50;;;;;;4943480;28;20046;-20
2022/02/02 21:40:58;;;;;;;1.13;1.10;;;16.40;62.50;;;;;;4951006;28;20055;-18
2022/02/02 21:43:24;;;;;;;1.02;1.02;;;16.40;62.50;;;;;;4947209;28;20198;-18
2022/02/02 21:45:49;;;;;;;0.90;0.90;;;16.40;62.50;;;;;;4950434;28;20138;-18
2022/02/02 21:48:15;;;;;;;1.05;0.95;;;16.40;62.50;;;;;;4942128;28;20182;-18
2022/02/02 21:51:07;;;;;;;1.13;0.95;;;16.40;62.50;;;;;;4949404;28;20162;-18
2022/02/02 21:53:27;;;;;;;1.23;1.10;;;16.50;62.50;;;;;;4942279;28;20051;-18
2022/02/02 21:55:53;;;;;;;1.30;1.20;;;16.40;62.50;;;;;;4947234;28;20050;-18
2022/02/02 21:58:18;;;;;;;1.20;1.10;;;16.40;62.60;;;;;;4949055;28;20062;-18
2022/02/02 22:00:44;;;;;;;2.95;0.88;;;16.40;62.60;;;;;;4949435;28;20055;-18
2022/02/02 22:03:11;;;;;;;1.20;1.10;;;16.40;62.60;;;;;;4948393;28;20120;-18
2022/02/02 22:05:37;;;;;;;1.17;1.08;;;16.40;62.50;;;;;;4945644;28;20169;-18
2022/02/02 22:08:07;;;;;;;1.42;1.30;;;16.50;62.50;;;;;;4947464;28;20047;-18
2022/02/02 22:10:32;;;;;;;1.30;1.20;;;16.50;62.50;;;;;;4945644;28;20054;-18
2022/02/02 22:12:58;;;;;;;1.13;1.02;;;16.40;62.50;;;;;;4939143;28;20043;-18
2022/02/02 22:15:28;;;;;;;0.95;0.90;;;16.50;62.40;;;;;;4941332;28;20055;-18
2022/02/02 22:17:54;;;;;;;1.10;1.00;;;16.40;62.50;;;;;;4942423;28;20102;-18
2022/02/02 22:20:19;;;;;;;1.33;1.08;;;16.40;62.50;;;;;;4954411;28;20055;-18
2022/02/02 22:22:46;;;;;;;0.93;0.93;;;16.40;62.50;;;;;;4947061;28;20047;-18
2022/02/02 22:25:12;;;;;;;1.38;1.27;;;16.40;62.50;;;;;;4944593;28;20134;-18
2022/02/02 22:27:38;;;;;;;1.35;1.10;;;16.40;62.50;;;;;;4951472;28;20141;-18
2022/02/02 22:30:04;;;;;;;1.40;1.30;;;16.50;62.50;;;;;;4948551;28;20082;-18
2022/02/02 22:32:30;;;;;;;1.52;1.42;;;16.50;62.50;;;;;;4959721;28;20049;-18
2022/02/02 22:34:56;;;;;;;1.40;1.30;;;16.40;62.40;;;;;;4968968;28;20043;-18
2022/02/02 22:37:22;;;;;;;3.15;1.35;;;16.50;62.30;;;;;;4956623;28;20131;-18
2022/02/02 22:39:50;;;;;;;1.10;1.00;;;16.50;62.30;;;;;;4954910;28;20054;-18
2022/02/02 22:42:17;;;;;;;1.27;1.13;;;16.50;62.20;;;;;;4956206;28;20055;-18
2022/02/02 22:44:43;;;;;;;1.30;1.20;;;16.50;62.30;;;;;;4957710;28;20047;-18
2022/02/02 22:47:10;;;;;;;1.30;1.20;;;16.50;62.20;;;;;;4948102;28;20103;-18
2022/02/02 22:49:38;;;;;;;1.90;1.40;;;16.50;62.20;;;;;;4921232;28;20047;-18
2022/02/02 22:52:05;;;;;;;0.95;0.95;;;16.40;62.20;;;;;;4937503;28;20044;-18
2022/02/02 22:54:30;;;;;;;1.10;1.00;;;16.40;62.10;;;;;;4956685;28;20056;-19
2022/02/02 22:56:56;;;;;;;1.20;1.13;;;16.40;62.10;;;;;;4946444;28;20054;-18
2022/02/02 22:59:21;;;;;;;1.10;1.00;;;16.40;62.20;;;;;;4938568;28;20048;-18
2022/02/02 23:01:55;;;;;;;1.15;1.13;;;16.40;62.10;;;;;;4938343;28;20449;-18
2022/02/02 23:04:20;;;;;;;1.33;1.23;;;16.40;62.10;;;;;;4937760;28;20052;-18
2022/02/02 23:06:46;;;;;;;1.20;1.10;;;16.40;62.20;;;;;;4941306;28;20049;-18
2022/02/02 23:09:13;;;;;;;1.73;1.30;;;16.40;62.10;;;;;;4952472;28;20057;-18
2022/02/02 23:11:39;;;;;;;1.15;1.10;;;16.40;62.20;;;;;;4938503;28;20050;-18
2022/02/02 23:14:04;;;;;;;1.15;1.15;;;16.40;62.20;;;;;;4937403;28;20047;-18
2022/02/02 23:16:37;;;;;;;1.40;1.30;;;16.40;62.10;;;;;;4939096;28;20570;-18
2022/02/02 23:19:02;;;;;;;1.13;1.10;;;16.40;62.10;;;;;;4956703;28;20501;-18
2022/02/02 23:21:28;;;;;;;1.17;1.08;;;16.30;62.10;;;;;;4955812;28;20390;-18
2022/02/02 23:24:01;;;;;;;1.10;1.00;;;16.30;62.10;;;;;;4936564;28;20054;-18
2022/02/02 23:26:27;;;;;;;1.10;1.00;;;16.30;62.10;;;;;;4938558;28;20044;-18
2022/02/02 23:28:54;;;;;;;1.05;1.00;;;16.30;62.20;;;;;;4948613;28;20051;-18
2022/02/02 23:31:19;;;;;;;1.00;1.00;;;16.30;62.20;;;;;;4940204;28;20050;-18
2022/02/02 23:33:45;;;;;;;1.20;1.10;;;16.30;62.10;;;;;;4955938;28;20485;-18
2022/02/02 23:36:11;;;;;;;1.25;1.15;;;16.30;62.10;;;;;;4940046;28;20059;-18
2022/02/02 23:38:37;;;;;;;1.23;1.13;;;16.30;62.30;;;;;;4953735;28;20051;-18
2022/02/02 23:43:29;;;;;;;1.10;1.10;;;16.30;62.30;;;;;;4949600;28;20043;-18
2022/02/02 23:46:01;;;;;;;1.20;1.10;;;16.30;62.30;;;;;;4946088;28;20111;-19
2022/02/02 23:48:28;;;;;;;1.02;0.93;;;16.30;62.10;;;;;;4955829;28;20657;-18
2022/02/02 23:51:00;;;;;;;0.80;0.80;;;16.20;62.20;;;;;;4952052;28;20044;-18
2022/02/02 23:53:26;;;;;;;1.20;1.10;;;16.20;62.20;;;;;;4936346;28;20047;-18
2022/02/02 23:56:01;;;;;;;1.23;1.00;;;16.20;62.30;;;;;;4941330;28;20046;-18
2022/02/02 23:58:36;;;;;;;1.00;1.00;;;16.20;63.10;;;;;;4947447;28;20648;-18
